createdAt,value
2023-03-20T00:00:45.406Z,97881.50
2023-03-20T00:05:47.093Z,97889.78
2023-03-20T00:10:48.570Z,97896.91
2023-03-20T00:15:50.281Z,97894.00
2023-03-20T00:20:53.532Z,97897.25
2023-03-20T00:25:55.983Z,97908.56
2023-03-20T00:30:57.430Z,97907.91
2023-03-20T00:35:59.021Z,97901.56
2023-03-20T00:41:00.639Z,97904.06
2023-03-20T00:46:03.109Z,97895.88
2023-03-20T00:51:05.901Z,97901.69
2023-03-20T00:56:30.313Z,97890.38
2023-03-20T01:01:32.157Z,97899.75
2023-03-20T01:06:33.634Z,97905.91
2023-03-20T01:11:35.791Z,97898.19
2023-03-20T01:16:37.357Z,97892.84
2023-03-20T01:21:38.815Z,97896.53
2023-03-20T01:26:42.919Z,97889.97
2023-03-20T01:31:44.985Z,97884.88
2023-03-20T01:36:52.908Z,97885.56
2023-03-20T01:41:54.720Z,97892.09
2023-03-20T01:46:58.366Z,97887.94
2023-03-20T01:52:00.454Z,97886.28
2023-03-20T01:57:17.241Z,97886.28
2023-03-20T02:02:23.561Z,97880.13
2023-03-20T02:07:25.611Z,97887.09
2023-03-20T02:12:42.177Z,97889.63
2023-03-20T02:17:46.312Z,97879.78
2023-03-20T02:23:25.709Z,97887.22
2023-03-20T02:28:47.794Z,97888.09
2023-03-20T02:34:35.588Z,97882.38
2023-03-20T02:40:01.684Z,97891.03
2023-03-20T02:45:14.652Z,97887.19
2023-03-20T02:50:20.814Z,97887.47
2023-03-20T02:55:30.184Z,97891.63
2023-03-20T03:00:39.231Z,97886.31
2023-03-20T03:05:54.147Z,97881.59
2023-03-20T03:11:04.109Z,97878.09
2023-03-20T03:16:12.189Z,97880.97
2023-03-20T03:21:17.899Z,97884.34
2023-03-20T03:26:31.320Z,97878.72
2023-03-20T03:31:33.397Z,97881.38
2023-03-20T03:37:02.381Z,97879.06
2023-03-20T03:42:33.891Z,97880.72
2023-03-20T03:47:41.833Z,97884.97
2023-03-20T03:52:46.837Z,97885.28
2023-03-20T03:58:03.037Z,97882.25
2023-03-20T04:03:07.273Z,97880.59
2023-03-20T04:08:08.973Z,97886.75
2023-03-20T04:13:11.707Z,97886.75
2023-03-20T04:18:17.604Z,97889.59
2023-03-20T04:23:20.543Z,97900.97
2023-03-20T04:28:23.012Z,97903.06
2023-03-20T04:33:31.830Z,97887.94
2023-03-20T04:38:57.769Z,97885.50
2023-03-20T04:44:00.189Z,97894.91
2023-03-20T04:49:01.968Z,97899.25
2023-03-20T04:54:05.012Z,97892.63
2023-03-20T04:59:06.639Z,97899.63
2023-03-20T05:04:08.620Z,97911.56
2023-03-20T05:09:11.539Z,97911.25
2023-03-20T05:14:13.207Z,97910.56
2023-03-20T05:19:39.680Z,97923.84
2023-03-20T05:25:09.777Z,97933.47
2023-03-20T05:30:40.885Z,97941.09
2023-03-20T05:36:02.008Z,97935.94
2023-03-20T05:41:28.088Z,97944.78
2023-03-20T05:46:45.864Z,97949.63
2023-03-20T05:52:11.155Z,97954.47
2023-03-20T05:57:22.714Z,97960.16
2023-03-20T06:02:27.352Z,97956.84
2023-03-20T06:07:39.108Z,97960.22
2023-03-20T06:12:46.392Z,97964.22
2023-03-20T06:17:49.502Z,97957.59
2023-03-20T06:22:51.599Z,97960.56
2023-03-20T06:27:54.025Z,97969.38
2023-03-20T06:32:55.825Z,97972.88
2023-03-20T06:38:03.710Z,97975.19
2023-03-20T06:43:05.445Z,97974.47
2023-03-20T06:48:22.459Z,97977.53
2023-03-20T06:53:24.969Z,97965.69
2023-03-20T06:58:36.525Z,97971.34
2023-03-20T07:03:37.957Z,97971.13
2023-03-20T07:08:39.976Z,97962.34
2023-03-20T07:13:41.624Z,97976.09
2023-03-20T07:18:56.761Z,97967.31
2023-03-20T07:23:58.908Z,97966.78
2023-03-20T07:29:02.099Z,97992.00
2023-03-20T07:34:03.995Z,97981.78
2023-03-20T07:39:09.924Z,97989.47
2023-03-20T07:44:14.377Z,97996.28
2023-03-20T07:49:22.924Z,97996.59
2023-03-20T07:54:24.507Z,97988.91
2023-03-20T07:59:26.077Z,98004.28
2023-03-20T08:04:27.784Z,98002.72
2023-03-20T08:09:29.285Z,98001.50
2023-03-20T08:14:31.004Z,98008.50
2023-03-20T08:19:32.453Z,98014.81
2023-03-20T08:24:34.443Z,98019.81
2023-03-20T08:29:36.061Z,98013.66
2023-03-20T08:34:37.628Z,98005.41
2023-03-20T08:39:39.732Z,98005.03
2023-03-20T08:44:41.481Z,98002.66
2023-03-20T08:49:43.612Z,98009.41
2023-03-20T08:54:45.340Z,98016.94
2023-03-20T08:59:46.786Z,98022.22
2023-03-20T09:04:48.201Z,98027.25
2023-03-20T09:09:49.925Z,98031.88
2023-03-20T09:14:51.401Z,98031.09
2023-03-20T09:19:52.908Z,98030.66
2023-03-20T09:24:54.357Z,98032.59
2023-03-20T09:29:56.039Z,98033.81
2023-03-20T09:34:57.558Z,98034.25
2023-03-20T09:39:59.038Z,98037.28
2023-03-20T09:45:48.633Z,98056.81
2023-03-20T09:50:59.316Z,98052.75
2023-03-20T09:56:01.519Z,98054.81
2023-03-20T10:01:06.627Z,98052.31
2023-03-20T10:06:14.452Z,98048.34
2023-03-20T10:11:35.511Z,98053.59
2023-03-20T10:16:52.175Z,98056.00
2023-03-20T10:22:02.672Z,98050.66
2023-03-20T10:27:18.403Z,98057.59
2023-03-20T10:32:36.580Z,98056.63
2023-03-20T10:37:53.161Z,98050.06
2023-03-20T10:43:13.126Z,98041.44
2023-03-20T10:48:31.145Z,98054.91
2023-03-20T10:53:40.401Z,98046.53
2023-03-20T10:58:47.080Z,98033.75
2023-03-20T11:03:48.617Z,98043.22
2023-03-20T11:08:52.998Z,98048.00
2023-03-20T11:13:55.119Z,98044.47
2023-03-20T11:19:06.074Z,98038.72
2023-03-20T11:24:24.150Z,98041.97
2023-03-20T11:29:35.142Z,98037.69
2023-03-20T11:34:38.635Z,98030.59
2023-03-20T11:39:59.353Z,98022.34
2023-03-20T11:45:04.209Z,98026.38
2023-03-20T11:50:07.170Z,98027.44
2023-03-20T11:55:33.602Z,98025.53
2023-03-20T12:00:40.388Z,98008.06
2023-03-20T12:05:41.871Z,98005.94
2023-03-20T12:10:50.886Z,98004.88
2023-03-20T12:15:59.702Z,97996.22
2023-03-20T12:21:14.039Z,98002.00
2023-03-20T12:26:21.149Z,97999.47
2023-03-20T12:31:50.094Z,97999.88
2023-03-20T12:36:57.252Z,97997.78
2023-03-20T12:42:04.842Z,98004.25
2023-03-20T12:47:32.861Z,97993.53
2023-03-20T12:53:17.532Z,97996.06
2023-03-20T12:58:44.263Z,97987.59
2023-03-20T13:03:52.688Z,97986.06
2023-03-20T13:09:31.864Z,97975.09
2023-03-20T13:15:01.736Z,97968.31
2023-03-20T13:20:27.611Z,97972.03
2023-03-20T13:25:47.379Z,97961.44
2023-03-20T13:31:04.391Z,97964.34
2023-03-20T13:36:34.528Z,97952.56
2023-03-20T13:41:36.804Z,97951.00
2023-03-20T13:46:45.785Z,97945.16
2023-03-20T13:51:58.130Z,97955.88
2023-03-20T13:57:10.257Z,97948.22
2023-03-20T14:02:27.971Z,97946.69
2023-03-20T14:07:35.364Z,97942.84
2023-03-20T14:12:36.800Z,97946.50
2023-03-20T14:17:44.547Z,97947.72
2023-03-20T14:22:48.905Z,97949.22
2023-03-20T14:27:58.241Z,97948.25
2023-03-20T14:33:05.742Z,97946.91
2023-03-20T14:38:28.883Z,97944.19
2023-03-20T14:43:45.530Z,97950.34
2023-03-20T14:48:52.750Z,97949.34
2023-03-20T14:53:58.598Z,97949.34
2023-03-20T14:59:07.207Z,97945.75
2023-03-20T15:04:20.790Z,97936.16
2023-03-20T15:09:25.612Z,97941.41
2023-03-20T15:14:29.630Z,97946.22
2023-03-20T15:19:33.440Z,97944.81
2023-03-20T15:24:35.018Z,97942.22
2023-03-20T15:29:36.495Z,97941.00
2023-03-20T15:34:39.669Z,97938.81
2023-03-20T15:39:45.274Z,97932.19
2023-03-20T15:44:49.375Z,97926.13
2023-03-20T15:50:02.659Z,97926.66
2023-03-20T15:55:14.427Z,97938.94
2023-03-20T16:00:39.839Z,97921.06
2023-03-20T16:05:45.248Z,97938.94
2023-03-20T16:10:46.852Z,97941.59
2023-03-20T16:15:48.654Z,97949.63
2023-03-20T16:20:56.016Z,97937.09
2023-03-20T16:26:02.879Z,97934.78
2023-03-20T16:31:09.634Z,97932.38
2023-03-20T16:36:20.869Z,97929.78
2023-03-20T16:41:34.597Z,97935.22
2023-03-20T16:46:36.089Z,97937.88
2023-03-20T16:51:37.635Z,97938.97
2023-03-20T16:56:40.458Z,97927.31
2023-03-20T17:01:44.810Z,97928.78
2023-03-20T17:06:49.838Z,97919.91
2023-03-20T17:12:00.615Z,97937.16
2023-03-20T17:17:02.122Z,97935.06
2023-03-20T17:22:14.055Z,97925.63
2023-03-20T17:27:16.839Z,97932.25
2023-03-20T17:32:20.457Z,97930.09
2023-03-20T17:37:29.441Z,97935.16
2023-03-20T17:42:31.498Z,97935.34
2023-03-20T17:47:32.993Z,97930.00
2023-03-20T17:52:34.419Z,97932.66
2023-03-20T17:57:38.609Z,97927.69
2023-03-20T18:02:40.070Z,97941.75
2023-03-20T18:07:41.684Z,97933.47
2023-03-20T18:12:43.186Z,97934.81
2023-03-20T18:17:44.706Z,97931.16
2023-03-20T18:22:46.142Z,97938.19
2023-03-20T18:27:49.178Z,97927.59
2023-03-20T18:32:51.212Z,97931.94
2023-03-20T18:37:52.807Z,97942.25
2023-03-20T18:42:55.711Z,97938.56
2023-03-20T18:47:58.155Z,97930.38
2023-03-20T18:52:59.693Z,97944.38
2023-03-20T18:58:05.980Z,97944.19
2023-03-20T19:03:08.894Z,97935.16
2023-03-20T19:08:15.673Z,97949.38
2023-03-20T19:13:19.893Z,97944.03
2023-03-20T19:18:23.395Z,97944.75
2023-03-20T19:23:28.550Z,97939.53
2023-03-20T19:28:40.720Z,97936.03
2023-03-20T19:33:43.045Z,97939.28
2023-03-20T19:38:44.483Z,97937.81
2023-03-20T19:43:52.369Z,97930.28
2023-03-20T19:48:57.850Z,97933.97
2023-03-20T19:53:59.419Z,97930.50
2023-03-20T19:59:01.461Z,97934.59
2023-03-20T20:04:03.049Z,97939.03
2023-03-20T20:09:05.108Z,97928.44
2023-03-20T20:14:09.613Z,97924.19
2023-03-20T20:19:14.062Z,97923.25
2023-03-20T20:24:16.253Z,97914.28
2023-03-20T20:29:18.860Z,97908.81
2023-03-20T20:39:45.019Z,97909.59
2023-03-20T20:44:46.864Z,97910.56
2023-03-20T20:49:48.410Z,97909.69
2023-03-20T20:54:49.884Z,97913.34
2023-03-20T20:59:54.042Z,97919.97
2023-03-20T21:04:56.285Z,97911.28
2023-03-20T21:09:57.723Z,97908.09
2023-03-20T21:14:59.392Z,97913.25
2023-03-20T21:20:00.989Z,97923.25
2023-03-20T21:25:13.837Z,97909.94
2023-03-20T21:30:18.614Z,97913.25
2023-03-20T21:35:20.137Z,97920.59
2023-03-20T21:40:21.827Z,97917.84
2023-03-20T21:56:44.585Z,97928.28
2023-03-20T22:07:32.975Z,97925.84
2023-03-20T22:18:12.123Z,97938.91
2023-03-20T22:34:25.870Z,97940.53
2023-03-20T22:40:06.539Z,97940.53
2023-03-20T22:44:56.878Z,97946.09
2023-03-20T22:49:43.511Z,97956.47
2023-03-20T22:54:45.137Z,97947.66
2023-03-20T22:59:46.564Z,97942.69
2023-03-20T23:04:48.214Z,97944.88
2023-03-20T23:09:49.663Z,97924.09
2023-03-20T23:14:51.455Z,97929.44
2023-03-20T23:20:05.092Z,97929.97
2023-03-20T23:25:23.881Z,97929.13
2023-03-20T23:30:43.929Z,97933.81
2023-03-20T23:35:46.897Z,97926.16
2023-03-20T23:40:50.357Z,97925.50
2023-03-20T23:45:51.914Z,97932.13
2023-03-20T23:50:53.830Z,97928.47
2023-03-20T23:55:56.979Z,97911.50
